Index of /wp-hr-content/uploads/wpfc-backup/2017/03/

NameLast ModifiedSize
UpParent Directory
[IMG]Branch-Functional-Chart-1-150x150.jpg2021-09-30 11:25 8k
[IMG]Branch-Functional-Chart-1-300x211.jpg2021-09-30 11:25 17k
[IMG]Branch-Functional-Chart-1-400x250.jpg2021-09-30 11:25 29k
[IMG]Branch-Functional-Chart-1-400x284.jpg2021-09-30 11:25 30k
[IMG]Branch-Functional-Chart-1-510x382.jpg2021-09-30 11:25 50k
[IMG]Branch-Functional-Chart-1-768x541.jpg2021-09-30 11:25 96k
[IMG]Branch-Functional-Chart-1.jpg2021-09-30 11:25 243k
[IMG]Branch-Functional-Chart-2-150x150.jpg2021-09-30 11:25 8k
[IMG]Branch-Functional-Chart-2-300x225.jpg2021-09-30 11:25 21k
[IMG]Branch-Functional-Chart-2-400x250.jpg2021-09-30 11:25 30k
[IMG]Branch-Functional-Chart-2-400x284.jpg2021-09-30 11:25 35k
[IMG]Branch-Functional-Chart-2-510x382.jpg2021-09-30 11:25 54k
[IMG]Branch-Functional-Chart-2-768x576.jpg2021-09-30 11:25 112k
[IMG]Branch-Functional-Chart-2.jpg2021-09-30 11:24 238k
[IMG]Functional-Chart-150x150.jpg2021-09-30 11:24 8k
[IMG]Functional-Chart-300x209.jpg2021-09-30 11:24 14k
[IMG]Functional-Chart-400x250.jpg2021-09-30 11:24 22k
[IMG]Functional-Chart-400x284.jpg2021-09-30 11:24 23k
[IMG]Functional-Chart-510x382.jpg2021-09-30 11:24 40k
[IMG]Functional-Chart-768x535.jpg2021-09-30 11:24 68k
[IMG]Functional-Chart.jpg2021-09-30 11:24 131k
[IMG]hr-1024x683.jpg2021-09-30 11:27 105k
[IMG]hr-1080x675.jpg2021-09-30 11:27 85k
[IMG]hr-1080x720.jpg2021-09-30 11:27 115k
[IMG]hr-150x150.jpg2021-09-30 11:27 7k
[IMG]hr-300x200.jpg2021-09-30 11:27 14k
[IMG]hr-400x250.jpg2021-09-30 11:27 20k
[IMG]hr-400x284.jpg2021-09-30 11:27 23k
[IMG]hr-510x382.jpg2021-09-30 11:27 35k
[IMG]hr-768x512.jpg2021-09-30 11:27 62k
[IMG]HR-Icon-01-1-150x150.png2021-09-30 11:26 12k
[IMG]HR-Icon-01-1-218x300.png2021-09-30 11:26 38k
[IMG]HR-Icon-01-1-400x250.png2021-09-30 11:26 49k
[IMG]HR-Icon-01-1-400x284.png2021-09-30 11:26 54k
[IMG]HR-Icon-01-1-405x382.png2021-09-30 11:26 14k
[IMG]HR-Icon-01-1-e1488518866227.png2021-09-30 11:26 28k
[IMG]HR-Icon-01-150x150.png2021-09-30 11:26 12k
[IMG]HR-Icon-01-2-150x150.png2021-09-30 11:26 12k
[IMG]HR-Icon-01-2-218x300.png2021-09-30 11:26 38k
[IMG]HR-Icon-01-2-400x250.png2021-09-30 11:25 49k
[IMG]HR-Icon-01-2-400x284.png2021-09-30 11:26 54k
[IMG]HR-Icon-01-2-405x382.png2021-09-30 11:25 14k
[IMG]HR-Icon-01-2-e1488518935679.png2021-09-30 11:26 25k
[IMG]HR-Icon-01-218x300.png2021-09-30 11:26 38k
[IMG]HR-Icon-01-400x250.png2021-09-30 11:26 37k
[IMG]HR-Icon-01-400x284.png2021-09-30 11:26 54k
[IMG]HR-Icon-01-405x382.png2021-09-30 11:26 14k
[IMG]HR-Icon-01-e1488518797548.png2021-09-30 11:26 15k
[IMG]Hr-Icons_About-Us-150x150.png2021-09-30 11:28 13k
[IMG]Hr-Icons_About-Us-300x300.png2021-09-30 11:28 26k
[IMG]Hr-Icons_About-Us-360x250.png2021-09-30 11:28 11k
[IMG]Hr-Icons_About-Us-360x284.png2021-09-30 11:28 13k
[IMG]Hr-Icons_About-Us.png2021-09-30 11:28 13k
[IMG]Hr-Icons_Branches-1-150x150.png2021-09-30 11:25 11k
[IMG]Hr-Icons_Branches-1-300x300.png2021-09-30 11:25 20k
[IMG]Hr-Icons_Branches-1-360x250.png2021-09-30 11:25 7k
[IMG]Hr-Icons_Branches-1-360x284.png2021-09-30 11:25 7k
[IMG]Hr-Icons_Branches-1-e1488539348734.png2021-09-30 11:25 9k
[IMG]Hr-Icons_Branches-150x150.png2021-09-30 11:28 11k
[IMG]Hr-Icons_Branches-300x300.png2021-09-30 11:28 20k
[IMG]Hr-Icons_Branches-360x250.png2021-09-30 11:28 7k
[IMG]Hr-Icons_Branches-360x284.png2021-09-30 11:28 9k
[IMG]Hr-Icons_Branches.png2021-09-30 11:28 10k
[IMG]Hr-Icons_Employment-1-150x150.png2021-09-30 11:55 15k
[IMG]Hr-Icons_Employment-1-300x300.png2021-09-30 11:55 30k
[IMG]Hr-Icons_Employment-1-360x250.png2021-09-30 11:55 15k
[IMG]Hr-Icons_Employment-1-360x284.png2021-09-30 11:55 11k
[IMG]Hr-Icons_Employment-1-e1488539426405.png2021-09-30 11:55 12k
[IMG]Hr-Icons_Employment-150x150.png2021-09-30 11:28 15k
[IMG]Hr-Icons_Employment-300x300.png2021-09-30 11:28 30k
[IMG]Hr-Icons_Employment-360x250.png2021-09-30 11:28 15k
[IMG]Hr-Icons_Employment-360x284.png2021-09-30 11:28 16k
[IMG]Hr-Icons_Employment.png2021-09-30 11:28 17k
[IMG]Hr-Icons_Resources-1-150x150.png2021-09-30 11:25 12k
[IMG]Hr-Icons_Resources-1-300x300.png2021-09-30 11:25 24k
[IMG]Hr-Icons_Resources-1-360x250.png2021-09-30 11:25 10k
[IMG]Hr-Icons_Resources-1-360x284.png2021-09-30 11:25 12k
[IMG]Hr-Icons_Resources-1-e1488539537808.png2021-09-30 11:25 10k
[IMG]Hr-Icons_Resources-150x150.png2021-09-30 11:28 12k
[IMG]Hr-Icons_Resources-300x300.png2021-09-30 11:28 24k
[IMG]Hr-Icons_Resources-360x250.png2021-09-30 11:27 10k
[IMG]Hr-Icons_Resources-360x284.png2021-09-30 11:27 12k
[IMG]Hr-Icons_Resources.png2021-09-30 11:28 12k
[IMG]hr.jpg2021-09-30 11:27 5352k
[IMG]HRTempLogo-01-150x150.png2021-09-30 11:27 35k
[IMG]HRTempLogo-01-300x300.png2021-09-30 11:27 108k
[IMG]HRTempLogo-01-360x250.png2021-09-30 11:27 99k
[IMG]HRTempLogo-01-360x284.png2021-09-30 11:27 104k
[IMG]HRTempLogo-01.png2021-09-30 11:27 113k
[IMG]Organizational-Chart-150x150.jpg2021-09-30 11:24 7k
[IMG]Organizational-Chart-300x213.jpg2021-09-30 11:24 12k
[IMG]Organizational-Chart-400x250.jpg2021-09-30 11:24 17k
[IMG]Organizational-Chart-400x284.jpg2021-09-30 11:24 18k
[IMG]Organizational-Chart-510x382.jpg2021-09-30 11:24 29k
[IMG]Organizational-Chart-768x546.jpg2021-09-30 11:24 52k
[IMG]Organizational-Chart.jpg2021-09-30 11:24 97k
Proudly Served by LiteSpeed Web Server at hr.doa.guam.gov Port 443